Time;durP1;ratioP1;P1;durP2;ratioP2;P2;SDS_P1;SDS_P2;PMS_P1;PMS_P2;Temp;Humidity;BMP_temperature;BMP_pressure;BME280_temperature;BME280_humidity;BME280_pressure;Samples;Min_cycle;Max_cycle;Signal;HPM_P1;HPM_P2
2023/01/25 00:00:34;;;;;;;;;;;1.80;99.90;;;;;;5134334;27;19907;-56
2023/01/25 00:03:00;;;;;;;;;;;1.80;99.90;;;;;;5133895;27;19907;-56
2023/01/25 00:05:25;;;;;;;;;;;1.80;99.90;;;;;;5134860;27;19917;-56
2023/01/25 00:07:51;;;;;;;;;;;1.80;99.90;;;;;;5133625;27;20323;-56
2023/01/25 00:10:16;;;;;;;;;;;1.70;99.90;;;;;;5133758;27;19915;-56
2023/01/25 00:12:41;;;;;;;;;;;1.70;99.90;;;;;;5134560;27;19908;-55
2023/01/25 00:15:07;;;;;;;;;;;1.80;99.90;;;;;;5128988;27;19911;-56
2023/01/25 00:17:33;;;;;;;;;;;1.80;99.90;;;;;;5129107;27;20014;-56
2023/01/25 00:19:58;;;;;;;;;;;1.70;99.90;;;;;;5134372;27;19915;-56
2023/01/25 00:22:23;;;;;;;;;;;1.70;99.90;;;;;;5134482;27;19914;-56
2023/01/25 00:24:49;;;;;;;;;;;1.70;99.90;;;;;;5130103;27;19907;-56
2023/01/25 00:27:14;;;;;;;;;;;1.70;99.90;;;;;;5134230;27;19920;-56
2023/01/25 00:29:40;;;;;;;;;;;1.70;99.90;;;;;;5134347;27;19908;-56
2023/01/25 00:32:05;;;;;;;;;;;1.70;99.90;;;;;;5133279;27;19912;-56
2023/01/25 00:34:47;;;;;;;;;;;1.70;99.90;;;;;;5133248;27;20002;-56
2023/01/25 00:37:31;;;;;;;;;;;1.60;99.90;;;;;;5134436;27;19916;-56
2023/01/25 00:39:56;;;;;;;;;;;1.60;99.90;;;;;;5134036;27;19911;-56
2023/01/25 00:42:22;;;;;;;;;;;1.60;99.90;;;;;;5133829;27;19907;-56
2023/01/25 00:44:48;;;;;;;;;;;1.60;99.90;;;;;;5126031;27;19914;-57
2023/01/25 00:47:14;;;;;;;;;;;1.60;99.90;;;;;;5113788;28;19923;-56
2023/01/25 00:49:40;;;;;;;;;;;1.50;99.90;;;;;;5113422;28;19908;-56
2023/01/25 00:52:06;;;;;;;;;;;1.50;99.90;;;;;;5122886;27;19964;-56
2023/01/25 00:54:32;;;;;;;;;;;1.50;99.90;;;;;;5129153;27;19919;-56
2023/01/25 00:56:57;;;;;;;;;;;1.40;99.90;;;;;;5113414;28;19908;-57
2023/01/25 00:59:25;;;;;;;;;;;1.40;99.90;;;;;;5111869;28;21548;-56
2023/01/25 01:01:50;;;;;;;;;;;1.40;99.90;;;;;;5121557;27;19950;-56
2023/01/25 01:04:16;;;;;;;;;;;1.40;99.90;;;;;;5132296;27;20415;-56
2023/01/25 01:06:42;;;;;;;;;;;1.40;99.90;;;;;;5132879;27;19907;-55
2023/01/25 01:09:10;;;;;;;;;;;1.40;99.90;;;;;;5133799;27;19914;-56
2023/01/25 01:11:36;;;;;;;;;;;1.40;99.90;;;;;;5133008;27;19914;-56
2023/01/25 01:14:01;;;;;;;;;;;1.40;99.90;;;;;;5122672;27;20002;-56
2023/01/25 01:16:27;;;;;;;;;;;1.40;99.90;;;;;;5113238;28;19915;-56
2023/01/25 01:18:53;;;;;;;;;;;1.40;99.90;;;;;;5112468;28;19907;-56
2023/01/25 01:21:18;;;;;;;;;;;1.50;99.90;;;;;;5111954;28;19908;-56
2023/01/25 01:23:44;;;;;;;;;;;1.50;99.90;;;;;;5121819;28;20393;-56
2023/01/25 01:26:11;;;;;;;;;;;1.50;99.90;;;;;;5133550;28;19914;-56
2023/01/25 01:28:39;;;;;;;;;;;1.50;99.90;;;;;;5132292;28;19974;-56
2023/01/25 01:31:10;;;;;;;;;;;1.50;99.90;;;;;;5133427;28;19912;-56
2023/01/25 01:33:36;;;;;;;;;;;1.50;99.90;;;;;;5124866;28;20046;-56
2023/01/25 01:36:08;;;;;;;;;;;1.50;99.90;;;;;;5112253;28;20453;-57
2023/01/25 01:38:33;;;;;;;;;;;1.50;99.90;;;;;;5112825;28;19908;-57
2023/01/25 01:40:59;;;;;;;;;;;1.40;99.90;;;;;;5112084;28;19915;-56
2023/01/25 01:43:25;;;;;;;;;;;1.40;99.90;;;;;;5118009;28;20430;-57
2023/01/25 01:45:52;;;;;;;;;;;1.40;99.90;;;;;;5133539;28;19911;-56
2023/01/25 01:48:23;;;;;;;;;;;1.30;99.90;;;;;;5130306;28;20056;-56
2023/01/25 01:50:51;;;;;;;;;;;1.20;99.90;;;;;;5132909;28;19912;-56
2023/01/25 01:53:16;;;;;;;;;;;1.20;99.90;;;;;;5128432;28;19912;-56
2023/01/25 01:55:42;;;;;;;;;;;1.30;99.90;;;;;;5111695;28;20379;-55
2023/01/25 01:58:07;;;;;;;;;;;1.30;99.90;;;;;;5112736;28;19973;-56
2023/01/25 02:00:36;;;;;;;;;;;1.30;99.90;;;;;;5112726;28;19908;-56
2023/01/25 02:03:01;;;;;;;;;;;1.30;99.90;;;;;;5112776;28;19947;-56
2023/01/25 02:05:50;;;;;;;;;;;1.30;99.90;;;;;;5114694;28;19965;-56
2023/01/25 02:08:16;;;;;;;;;;;1.40;99.90;;;;;;5104027;28;19922;-56
2023/01/25 02:10:42;;;;;;;;;;;1.30;99.90;;;;;;5111790;28;20333;-56
2023/01/25 02:13:08;;;;;;;;;;;1.40;99.90;;;;;;5113477;28;19968;-56
2023/01/25 02:15:44;;;;;;;;;;;1.40;99.90;;;;;;5131274;28;19911;-56
2023/01/25 02:18:11;;;;;;;;;;;1.30;99.90;;;;;;5124231;28;20430;-56
2023/01/25 02:20:36;;;;;;;;;;;1.30;99.90;;;;;;5112479;28;19958;-56
2023/01/25 02:23:05;;;;;;;;;;;1.30;99.90;;;;;;5114181;28;19963;-56
2023/01/25 02:25:30;;;;;;;;;;;1.30;99.90;;;;;;5136619;27;20374;-56
2023/01/25 02:28:05;;;;;;;;;;;1.30;99.90;;;;;;5136694;27;19922;-56
2023/01/25 02:30:31;;;;;;;;;;;1.20;99.90;;;;;;5136099;27;19915;-56
2023/01/25 02:32:57;;;;;;;;;;;1.30;99.90;;;;;;5136555;27;19911;-56
2023/01/25 02:35:23;;;;;;;;;;;1.20;99.90;;;;;;5135377;27;20002;-56
2023/01/25 02:37:50;;;;;;;;;;;1.20;99.90;;;;;;5135781;27;19915;-57
2023/01/25 02:40:16;;;;;;;;;;;1.20;99.90;;;;;;5136498;27;19912;-56
2023/01/25 02:42:42;;;;;;;;;;;1.20;99.90;;;;;;5136494;27;19907;-56
2023/01/25 02:45:10;;;;;;;;;;;1.20;99.90;;;;;;5124134;27;19911;-56
2023/01/25 02:47:36;;;;;;;;;;;1.20;99.90;;;;;;5136310;27;19971;-56
2023/01/25 02:50:01;;;;;;;;;;;1.20;99.90;;;;;;5136316;27;19950;-56
2023/01/25 02:52:27;;;;;;;;;;;1.20;99.90;;;;;;5135665;27;19915;-56
2023/01/25 02:54:52;;;;;;;;;;;1.20;99.90;;;;;;5121123;27;20382;-56
2023/01/25 02:57:18;;;;;;;;;;;1.20;99.90;;;;;;5116026;28;19908;-56
2023/01/25 02:59:43;;;;;;;;;;;1.20;99.90;;;;;;5114475;28;19915;-56
2023/01/25 03:02:09;;;;;;;;;;;1.20;99.90;;;;;;5115575;28;19915;-56
2023/01/25 03:04:34;;;;;;;;;;;1.20;99.90;;;;;;5125181;27;19911;-56
2023/01/25 03:07:00;;;;;;;;;;;1.20;99.90;;;;;;5135103;27;20350;-56
2023/01/25 03:09:25;;;;;;;;;;;1.20;99.90;;;;;;5129741;27;19911;-56
2023/01/25 03:11:50;;;;;;;;;;;1.20;99.90;;;;;;5114418;28;19908;-57
2023/01/25 03:14:16;;;;;;;;;;;1.20;99.90;;;;;;5135123;27;19989;-56
2023/01/25 03:16:41;;;;;;;;;;;1.20;99.90;;;;;;5135751;27;19930;-56
2023/01/25 03:19:07;;;;;;;;;;;1.20;99.90;;;;;;5136003;27;19960;-56
2023/01/25 03:21:32;;;;;;;;;;;1.20;99.90;;;;;;5135015;27;19908;-56
2023/01/25 03:24:00;;;;;;;;;;;1.20;99.90;;;;;;5134630;27;19915;-56
2023/01/25 03:26:25;;;;;;;;;;;1.20;99.90;;;;;;5134993;27;19908;-56
2023/01/25 03:28:51;;;;;;;;;;;1.20;99.90;;;;;;5135616;27;20338;-56
2023/01/25 03:31:17;;;;;;;;;;;1.20;99.90;;;;;;5135509;27;19908;-56
2023/01/25 03:33:42;;;;;;;;;;;1.20;99.90;;;;;;5118265;27;20001;-57
2023/01/25 03:36:08;;;;;;;;;;;1.30;99.90;;;;;;5114946;28;20350;-57
2023/01/25 03:38:34;;;;;;;;;;;1.20;99.90;;;;;;5127958;27;19911;-56
2023/01/25 03:41:00;;;;;;;;;;;1.20;99.90;;;;;;5134123;27;20043;-56
2023/01/25 03:43:25;;;;;;;;;;;1.20;99.90;;;;;;5134441;27;19919;-56
2023/01/25 03:45:56;;;;;;;;;;;1.20;99.90;;;;;;5135209;27;19907;-57
2023/01/25 03:48:22;;;;;;;;;;;1.10;99.90;;;;;;5134408;27;20006;-56
2023/01/25 03:50:48;;;;;;;;;;;1.10;99.90;;;;;;5134976;27;19953;-57
2023/01/25 03:53:26;;;;;;;;;;;1.10;99.90;;;;;;5134147;27;19922;-56
2023/01/25 03:55:52;;;;;;;;;;;1.10;99.90;;;;;;5134208;27;20378;-56
2023/01/25 03:58:17;;;;;;;;;;;1.10;99.90;;;;;;5135240;27;19915;-56
2023/01/25 04:00:43;;;;;;;;;;;1.10;99.90;;;;;;5134941;27;19907;-56
2023/01/25 04:03:08;;;;;;;;;;;1.10;99.90;;;;;;5133127;27;19998;-56
2023/01/25 04:05:34;;;;;;;;;;;1.10;99.90;;;;;;5133839;27;19919;-57
2023/01/25 04:07:59;;;;;;;;;;;1.10;99.90;;;;;;5134276;27;19959;-56
2023/01/25 04:10:25;;;;;;;;;;;1.10;99.90;;;;;;5134076;27;19915;-56
2023/01/25 04:12:50;;;;;;;;;;;1.00;99.90;;;;;;5132783;27;20357;-56
2023/01/25 04:15:15;;;;;;;;;;;1.00;99.90;;;;;;5134701;27;19912;-57
2023/01/25 04:17:41;;;;;;;;;;;0.90;99.90;;;;;;5133898;27;20442;-56
2023/01/25 04:20:07;;;;;;;;;;;0.90;99.90;;;;;;5134493;27;19918;-56
2023/01/25 04:22:32;;;;;;;;;;;0.90;99.90;;;;;;5132608;27;19952;-56
2023/01/25 04:24:58;;;;;;;;;;;0.90;99.90;;;;;;5133959;27;19912;-56
2023/01/25 04:27:23;;;;;;;;;;;0.90;99.90;;;;;;5134390;27;19934;-56
2023/01/25 04:29:48;;;;;;;;;;;0.80;99.90;;;;;;5125702;27;19941;-57
2023/01/25 04:32:14;;;;;;;;;;;0.80;99.90;;;;;;5114082;28;19919;-56
2023/01/25 04:34:39;;;;;;;;;;;0.80;99.90;;;;;;5112727;27;19908;-58
2023/01/25 04:37:05;;;;;;;;;;;0.80;99.90;;;;;;5112980;28;19912;-56
2023/01/25 04:39:30;;;;;;;;;;;0.80;99.90;;;;;;5113325;28;19908;-57
2023/01/25 04:41:56;;;;;;;;;;;0.70;99.90;;;;;;5113650;28;20390;-56
2023/01/25 04:44:21;;;;;;;;;;;0.80;99.90;;;;;;5112895;28;19907;-57
2023/01/25 04:46:48;;;;;;;;;;;0.70;99.90;;;;;;5113484;28;19912;-56
2023/01/25 04:49:13;;;;;;;;;;;0.70;99.90;;;;;;5113068;28;20014;-56
2023/01/25 04:51:40;;;;;;;;;;;0.70;99.90;;;;;;5112792;28;20031;-57
2023/01/25 04:54:05;;;;;;;;;;;0.70;99.90;;;;;;5113120;28;19920;-57
2023/01/25 04:56:31;;;;;;;;;;;0.70;99.90;;;;;;5113449;28;19935;-56
2023/01/25 04:58:56;;;;;;;;;;;0.70;99.90;;;;;;5113409;27;19995;-56
2023/01/25 05:01:21;;;;;;;;;;;0.80;99.90;;;;;;5113234;27;20359;-57
2023/01/25 05:03:47;;;;;;;;;;;0.70;99.90;;;;;;5113312;28;19912;-57
2023/01/25 05:06:12;;;;;;;;;;;0.70;99.90;;;;;;5112494;28;19908;-56
2023/01/25 05:08:38;;;;;;;;;;;0.80;99.90;;;;;;5113287;27;20260;-58
2023/01/25 05:11:03;;;;;;;;;;;0.80;99.90;;;;;;5128393;27;19989;-57
2023/01/25 05:13:29;;;;;;;;;;;0.90;99.90;;;;;;5133068;27;19908;-58
2023/01/25 05:15:55;;;;;;;;;;;0.90;99.90;;;;;;5133682;27;19907;-57
2023/01/25 05:18:20;;;;;;;;;;;0.90;99.90;;;;;;5133866;28;19907;-57
2023/01/25 05:20:46;;;;;;;;;;;0.90;99.90;;;;;;5131839;28;19918;-57
2023/01/25 05:23:11;;;;;;;;;;;0.90;99.90;;;;;;5133753;28;19961;-57
2023/01/25 05:28:21;;;;;;;;;;;0.80;99.90;;;;;;5117872;28;19927;-57
2023/01/25 05:30:46;;;;;;;;;;;0.80;99.90;;;;;;5112411;28;19912;-57
2023/01/25 05:33:12;;;;;;;;;;;0.80;99.90;;;;;;5112227;28;20038;-56
2023/01/25 05:35:37;;;;;;;;;;;0.80;99.90;;;;;;5113022;28;20306;-57
2023/01/25 05:38:03;;;;;;;;;;;0.80;99.90;;;;;;5116842;28;20306;-57
2023/01/25 05:40:28;;;;;;;;;;;0.70;99.90;;;;;;5132661;28;19908;-56
2023/01/25 05:42:55;;;;;;;;;;;0.70;99.90;;;;;;5133701;28;19911;-56
2023/01/25 05:45:20;;;;;;;;;;;0.70;99.90;;;;;;5133603;28;19914;-57
2023/01/25 05:47:46;;;;;;;;;;;0.70;99.90;;;;;;5131359;28;19919;-56
2023/01/25 05:50:11;;;;;;;;;;;0.70;99.90;;;;;;5133430;28;19994;-57
2023/01/25 05:52:37;;;;;;;;;;;0.80;99.90;;;;;;5133458;28;20358;-57
2023/01/25 05:55:02;;;;;;;;;;;0.80;99.90;;;;;;5131154;28;19925;-57
2023/01/25 05:57:28;;;;;;;;;;;0.80;99.90;;;;;;5133599;27;20374;-56
2023/01/25 05:59:53;;;;;;;;;;;0.90;99.90;;;;;;5137330;27;19941;-57
2023/01/25 06:02:19;;;;;;;;;;;0.90;99.90;;;;;;5136625;27;20018;-57
2023/01/25 06:04:44;;;;;;;;;;;0.90;99.90;;;;;;5137224;27;19912;-56
2023/01/25 06:07:10;;;;;;;;;;;0.90;99.90;;;;;;5135500;27;20354;-57
2023/01/25 06:09:35;;;;;;;;;;;0.80;99.90;;;;;;5135256;27;19922;-57
2023/01/25 06:12:02;;;;;;;;;;;0.80;99.90;;;;;;5135533;27;19917;-56
2023/01/25 06:14:28;;;;;;;;;;;0.80;99.90;;;;;;5135551;27;19912;-57
2023/01/25 06:16:53;;;;;;;;;;;0.70;99.90;;;;;;5130852;27;19915;-57
2023/01/25 06:19:19;;;;;;;;;;;0.70;99.90;;;;;;5135482;27;19918;-57
2023/01/25 06:21:44;;;;;;;;;;;0.70;99.90;;;;;;5135289;27;19911;-56
2023/01/25 06:24:10;;;;;;;;;;;0.70;99.90;;;;;;5130369;27;19908;-57
2023/01/25 06:26:35;;;;;;;;;;;0.70;99.90;;;;;;5131814;27;19918;-56
2023/01/25 06:29:00;;;;;;;;;;;0.70;99.90;;;;;;5133913;27;19942;-58
2023/01/25 06:31:26;;;;;;;;;;;0.80;99.90;;;;;;5125771;27;19918;-58
2023/01/25 06:33:51;;;;;;;;;;;0.80;99.90;;;;;;5135230;27;19907;-58
2023/01/25 06:36:18;;;;;;;;;;;0.80;99.90;;;;;;5133192;27;20310;-56
2023/01/25 06:38:47;;;;;;;;;;;0.80;99.90;;;;;;5134574;27;20294;-57
2023/01/25 06:41:12;;;;;;;;;;;0.80;99.90;;;;;;5131276;27;19914;-57
2023/01/25 06:43:38;;;;;;;;;;;0.80;99.90;;;;;;5134226;27;20002;-57
2023/01/25 06:46:05;;;;;;;;;;;0.80;99.90;;;;;;5131462;27;19915;-57
2023/01/25 06:48:30;;;;;;;;;;;0.80;99.90;;;;;;5132196;27;20413;-57
2023/01/25 06:50:57;;;;;;;;;;;0.80;99.90;;;;;;5131551;27;19908;-58
2023/01/25 06:53:23;;;;;;;;;;;0.80;99.90;;;;;;5134638;27;19919;-56
2023/01/25 06:55:55;;;;;;;;;;;0.80;99.90;;;;;;5128378;27;19939;-57
2023/01/25 06:58:20;;;;;;;;;;;0.70;99.90;;;;;;5133731;27;19907;-56
2023/01/25 07:00:46;;;;;;;;;;;0.70;99.90;;;;;;5134474;27;20273;-56
2023/01/25 07:03:11;;;;;;;;;;;0.70;99.90;;;;;;5134726;27;19915;-57
2023/01/25 07:05:37;;;;;;;;;;;0.60;99.90;;;;;;5133121;27;19915;-57
2023/01/25 07:08:02;;;;;;;;;;;0.60;99.90;;;;;;5134974;27;19922;-58
2023/01/25 07:10:27;;;;;;;;;;;0.50;99.90;;;;;;5135619;27;19908;-58
2023/01/25 07:12:53;;;;;;;;;;;0.50;99.90;;;;;;5135055;27;20342;-57
2023/01/25 07:15:18;;;;;;;;;;;0.50;99.90;;;;;;5134248;27;20029;-56
2023/01/25 07:17:44;;;;;;;;;;;0.50;99.90;;;;;;5134913;27;19919;-56
2023/01/25 07:20:09;;;;;;;;;;;0.50;99.90;;;;;;5134363;27;20381;-57
2023/01/25 07:22:35;;;;;;;;;;;0.50;99.90;;;;;;5134159;27;20002;-56
2023/01/25 07:25:01;;;;;;;;;;;0.50;99.90;;;;;;5128018;27;19951;-56
2023/01/25 07:27:26;;;;;;;;;;;0.50;99.90;;;;;;5114030;28;19922;-55
2023/01/25 07:29:52;;;;;;;;;;;0.50;99.90;;;;;;5115045;28;19999;-56
2023/01/25 07:32:17;;;;;;;;;;;0.50;99.90;;;;;;5115085;28;19959;-56
2023/01/25 07:34:43;;;;;;;;;;;0.50;99.90;;;;;;5117543;27;19907;-56
2023/01/25 07:37:09;;;;;;;;;;;0.50;99.90;;;;;;5135134;27;19940;-57
2023/01/25 07:39:34;;;;;;;;;;;0.50;99.90;;;;;;5119921;27;19957;-56
2023/01/25 07:42:00;;;;;;;;;;;0.50;99.90;;;;;;5118508;27;19943;-56
2023/01/25 07:44:26;;;;;;;;;;;0.60;99.90;;;;;;5121398;27;19952;-57
2023/01/25 07:46:52;;;;;;;;;;;0.60;99.90;;;;;;5130599;27;19915;-57
2023/01/25 07:49:17;;;;;;;;;;;0.70;99.90;;;;;;5135451;27;19968;-56
2023/01/25 07:51:43;;;;;;;;;;;0.60;99.90;;;;;;5120574;27;20286;-56
2023/01/25 07:54:09;;;;;;;;;;;0.70;99.90;;;;;;5113553;28;20007;-56
2023/01/25 07:56:36;;;;;;;;;;;0.70;99.90;;;;;;5132866;27;19912;-56
2023/01/25 07:59:02;;;;;;;;;;;0.60;99.90;;;;;;5135023;27;19911;-56
2023/01/25 08:01:28;;;;;;;;;;;0.60;99.90;;;;;;5128306;27;19916;-59
2023/01/25 08:03:57;;;;;;;;;;;0.60;99.90;;;;;;5133756;27;19954;-56
2023/01/25 08:06:26;;;;;;;;;;;0.60;99.90;;;;;;5133902;27;19908;-56
2023/01/25 08:08:52;;;;;;;;;;;0.60;99.90;;;;;;5128678;27;19920;-57
2023/01/25 08:11:22;;;;;;;;;;;0.50;99.90;;;;;;5126771;27;20007;-56
2023/01/25 08:13:48;;;;;;;;;;;0.50;99.90;;;;;;5114203;28;19915;-57
2023/01/25 08:16:21;;;;;;;;;;;0.50;99.90;;;;;;5120782;27;20065;-57
2023/01/25 08:18:54;;;;;;;;;;;0.50;99.90;;;;;;5119904;27;19912;-56
2023/01/25 08:21:23;;;;;;;;;;;0.40;99.90;;;;;;5113859;28;19912;-56
2023/01/25 08:23:48;;;;;;;;;;;0.40;99.90;;;;;;5113790;27;19961;-56
2023/01/25 08:26:15;;;;;;;;;;;0.30;99.90;;;;;;5113946;28;19911;-56
2023/01/25 08:28:41;;;;;;;;;;;0.40;99.90;;;;;;5113933;28;19916;-56
2023/01/25 08:31:11;;;;;;;;;;;0.30;99.90;;;;;;5113354;27;19907;-58
2023/01/25 08:33:37;;;;;;;;;;;0.30;99.90;;;;;;5123198;27;19912;-56
2023/01/25 08:36:02;;;;;;;;;;;0.40;99.90;;;;;;5133516;27;19908;-57
2023/01/25 08:38:28;;;;;;;;;;;0.40;99.90;;;;;;5134240;27;19932;-56
2023/01/25 08:40:53;;;;;;;;;;;0.40;99.90;;;;;;5120774;27;19911;-57
2023/01/25 08:43:19;;;;;;;;;;;0.40;99.90;;;;;;5122275;27;19918;-56
2023/01/25 08:45:44;;;;;;;;;;;0.40;99.90;;;;;;5113801;27;19973;-56
2023/01/25 08:48:14;;;;;;;;;;;0.40;99.90;;;;;;5123353;27;19923;-56
2023/01/25 08:50:44;;;;;;;;;;;0.40;99.90;;;;;;5112107;28;20385;-56
2023/01/25 08:53:09;;;;;;;;;;;0.40;99.90;;;;;;5117316;27;19919;-56
2023/01/25 08:55:35;;;;;;;;;;;0.40;99.90;;;;;;5132540;27;19919;-56
2023/01/25 08:58:00;;;;;;;;;;;0.40;99.90;;;;;;5133078;27;19953;-57
2023/01/25 09:00:26;;;;;;;;;;;0.40;99.90;;;;;;5133926;27;19946;-57
2023/01/25 09:02:51;;;;;;;;;;;0.40;99.90;;;;;;5132662;27;19912;-56
2023/01/25 09:05:17;;;;;;;;;;;0.40;99.90;;;;;;5133264;27;19927;-56
2023/01/25 09:07:42;;;;;;;;;;;0.30;99.90;;;;;;5133727;27;19912;-56
2023/01/25 09:10:08;;;;;;;;;;;0.40;99.90;;;;;;5133824;27;19919;-57
2023/01/25 09:12:34;;;;;;;;;;;0.40;99.90;;;;;;5130732;27;19907;-57
2023/01/25 09:15:00;;;;;;;;;;;0.40;99.90;;;;;;5129812;27;19954;-57
2023/01/25 09:17:25;;;;;;;;;;;0.40;99.90;;;;;;5128984;27;20391;-56
2023/01/25 09:19:51;;;;;;;;;;;0.40;99.90;;;;;;5112287;28;19914;-56
2023/01/25 09:22:16;;;;;;;;;;;0.40;99.90;;;;;;5113128;28;19912;-58
2023/01/25 09:24:42;;;;;;;;;;;0.40;99.90;;;;;;5112665;28;19908;-57
2023/01/25 09:27:07;;;;;;;;;;;0.40;99.90;;;;;;5111669;28;19912;-57
2023/01/25 09:29:33;;;;;;;;;;;0.40;99.90;;;;;;5126989;28;19911;-56
2023/01/25 09:31:58;;;;;;;;;;;0.40;99.90;;;;;;5134564;27;19907;-56
2023/01/25 09:34:24;;;;;;;;;;;0.40;99.90;;;;;;5137187;27;19908;-56
2023/01/25 09:36:49;;;;;;;;;;;0.30;99.90;;;;;;5137862;27;19953;-57
2023/01/25 09:39:15;;;;;;;;;;;0.40;99.90;;;;;;5135772;27;20357;-56
2023/01/25 09:41:46;;;;;;;;;;;0.40;99.90;;;;;;5137830;27;19954;-56
2023/01/25 09:44:22;;;;;;;;;;;0.40;99.90;;;;;;5137636;27;20250;-56
2023/01/25 09:46:55;;;;;;;;;;;0.40;99.90;;;;;;5135827;27;19915;-57
2023/01/25 09:49:35;;;;;;;;;;;0.40;99.90;;;;;;5137493;27;19915;-56
2023/01/25 09:52:19;;;;;;;;;;;0.40;99.90;;;;;;5137525;27;19960;-55
2023/01/25 09:54:45;;;;;;;;;;;0.40;99.90;;;;;;5136378;27;19919;-56
2023/01/25 09:57:14;;;;;;;;;;;0.40;99.90;;;;;;5136482;27;19966;-57
2023/01/25 09:59:40;;;;;;;;;;;0.40;99.90;;;;;;5137477;27;19943;-57
2023/01/25 10:02:17;;;;;;;;;;;0.40;99.90;;;;;;5136471;27;19939;-57
2023/01/25 10:04:44;;;;;;;;;;;0.40;99.90;;;;;;5137349;27;19907;-57
2023/01/25 10:07:17;;;;;;;;;;;0.40;99.90;;;;;;5135944;27;20405;-57
2023/01/25 10:09:49;;;;;;;;;;;0.40;99.90;;;;;;5137253;27;19914;-56
2023/01/25 10:12:18;;;;;;;;;;;0.40;99.90;;;;;;5137316;27;20002;-56
2023/01/25 10:14:43;;;;;;;;;;;0.40;99.90;;;;;;5136336;27;19908;-56
2023/01/25 10:17:17;;;;;;;;;;;0.40;99.90;;;;;;5121232;27;20018;-58
2023/01/25 10:20:06;;;;;;;;;;;0.40;99.90;;;;;;5116302;28;19987;-57
2023/01/25 10:22:35;;;;;;;;;;;0.40;99.90;;;;;;5104398;28;19934;-57
2023/01/25 10:25:10;;;;;;;;;;;0.40;99.90;;;;;;5116343;28;19930;-56
2023/01/25 10:27:51;;;;;;;;;;;0.30;99.90;;;;;;5116380;28;19966;-56
2023/01/25 10:30:27;;;;;;;;;;;0.30;99.90;;;;;;5115457;28;19958;-57
2023/01/25 10:33:01;;;;;;;;;;;0.30;99.90;;;;;;5116205;28;19976;-57
2023/01/25 10:35:29;;;;;;;;;;;0.30;99.90;;;;;;5116610;27;20389;-57
2023/01/25 10:37:58;;;;;;;;;;;0.30;99.90;;;;;;5136880;27;20350;-56
2023/01/25 10:40:25;;;;;;;;;;;0.40;99.90;;;;;;5122748;27;20329;-58
2023/01/25 10:42:56;;;;;;;;;;;0.30;99.90;;;;;;5125914;27;20385;-56
2023/01/25 10:45:22;;;;;;;;;;;0.30;99.90;;;;;;5120009;27;20435;-56
2023/01/25 10:48:02;;;;;;;;;;;0.30;99.90;;;;;;5124707;27;19923;-57
2023/01/25 10:50:40;;;;;;;;;;;0.30;99.90;;;;;;5134160;27;20014;-58
2023/01/25 10:53:17;;;;;;;;;;;0.20;99.90;;;;;;5119059;27;19911;-57
2023/01/25 10:55:53;;;;;;;;;;;0.30;99.90;;;;;;5130412;27;20006;-56
2023/01/25 10:58:29;;;;;;;;;;;0.30;99.90;;;;;;5132889;27;19907;-56
2023/01/25 11:00:55;;;;;;;;;;;0.40;99.90;;;;;;5115614;28;19908;-57
2023/01/25 11:03:20;;;;;;;;;;;0.30;99.90;;;;;;5124471;27;19975;-56
2023/01/25 11:05:56;;;;;;;;;;;0.40;99.90;;;;;;5135409;27;20046;-58
2023/01/25 11:08:41;;;;;;;;;;;0.40;99.90;;;;;;5132223;27;19951;-57
2023/01/25 11:11:24;;;;;;;;;;;0.40;99.90;;;;;;5131405;27;19908;-57
2023/01/25 11:13:53;;;;;;;;;;;0.40;99.90;;;;;;5114532;27;20332;-56
2023/01/25 11:16:19;;;;;;;;;;;0.40;99.90;;;;;;5115364;27;20006;-57
2023/01/25 11:18:54;;;;;;;;;;;0.40;99.90;;;;;;5119027;27;20007;-57
2023/01/25 11:21:26;;;;;;;;;;;0.40;99.90;;;;;;5124695;27;19912;-57
2023/01/25 11:24:01;;;;;;;;;;;0.40;99.90;;;;;;5135862;27;19935;-57
2023/01/25 11:26:26;;;;;;;;;;;0.40;99.90;;;;;;5133965;27;19908;-56
2023/01/25 11:29:04;;;;;;;;;;;0.40;99.90;;;;;;5134438;27;19972;-57
2023/01/25 11:31:30;;;;;;;;;;;0.40;99.90;;;;;;5135722;27;19907;-57
2023/01/25 11:33:55;;;;;;;;;;;0.40;99.90;;;;;;5134842;27;19980;-56
2023/01/25 11:36:47;;;;;;;;;;;0.30;99.90;;;;;;5135552;27;20384;-57
2023/01/25 11:39:15;;;;;;;;;;;0.30;99.90;;;;;;5099976;27;20392;-58
2023/01/25 11:41:59;;;;;;;;;;;0.30;99.90;;;;;;5122170;27;19911;-57
2023/01/25 11:44:31;;;;;;;;;;;0.30;99.90;;;;;;5115425;27;19919;-57
2023/01/25 11:47:18;;;;;;;;;;;0.30;99.90;;;;;;5117424;27;19911;-57
2023/01/25 11:49:43;;;;;;;;;;;0.30;99.90;;;;;;5129044;27;19915;-58
2023/01/25 11:52:27;;;;;;;;;;;0.30;99.90;;;;;;5134464;27;19944;-57
2023/01/25 11:55:10;;;;;;;;;;;0.40;99.90;;;;;;5126479;27;19919;-57
2023/01/25 11:57:39;;;;;;;;;;;0.30;99.90;;;;;;5135078;27;19907;-57
2023/01/25 12:00:17;;;;;;;;;;;0.40;99.90;;;;;;5133186;27;19911;-56
2023/01/25 12:02:52;;;;;;;;;;;0.40;99.90;;;;;;5135006;27;19968;-56
2023/01/25 12:05:35;;;;;;;;;;;0.40;99.90;;;;;;5125173;27;19911;-56
2023/01/25 12:08:21;;;;;;;;;;;0.40;99.90;;;;;;5113356;28;19911;-56
2023/01/25 12:10:58;;;;;;;;;;;0.30;99.90;;;;;;5114284;28;20267;-56
2023/01/25 12:13:33;;;;;;;;;;;0.40;99.90;;;;;;5114210;28;20394;-57
2023/01/25 12:16:22;;;;;;;;;;;0.30;99.90;;;;;;5112690;27;19912;-57
2023/01/25 12:18:58;;;;;;;;;;;0.40;99.90;;;;;;5113163;28;19915;-57
2023/01/25 12:21:33;;;;;;;;;;;0.30;99.90;;;;;;5113992;27;19911;-56
2023/01/25 12:24:17;;;;;;;;;;;0.30;99.90;;;;;;5114446;27;19990;-57
2023/01/25 12:27:09;;;;;;;;;;;0.30;99.90;;;;;;5114438;27;20279;-57
2023/01/25 12:29:39;;;;;;;;;;;0.40;99.90;;;;;;5089022;28;19981;-57
2023/01/25 12:32:11;;;;;;;;;;;0.40;99.90;;;;;;5113858;28;20409;-57
2023/01/25 12:34:41;;;;;;;;;;;0.40;99.90;;;;;;5113197;27;19986;-56
2023/01/25 12:37:12;;;;;;;;;;;0.40;99.90;;;;;;5130211;27;19911;-56
2023/01/25 12:39:41;;;;;;;;;;;0.40;99.90;;;;;;5116145;27;19908;-56
2023/01/25 12:42:13;;;;;;;;;;;0.40;99.90;;;;;;5112707;27;19919;-56
2023/01/25 12:44:43;;;;;;;;;;;0.30;99.90;;;;;;5115980;27;19943;-55
2023/01/25 12:47:35;;;;;;;;;;;0.30;99.90;;;;;;5113192;27;19923;-56
2023/01/25 12:50:12;;;;;;;;;;;0.30;99.90;;;;;;5123709;27;19918;-56
2023/01/25 12:52:44;;;;;;;;;;;0.30;99.90;;;;;;5119496;27;19912;-56
2023/01/25 12:55:13;;;;;;;;;;;0.30;99.90;;;;;;5113526;27;20055;-57
2023/01/25 12:57:39;;;;;;;;;;;0.30;99.90;;;;;;5114110;27;20362;-56
2023/01/25 13:00:04;;;;;;;;;;;0.30;99.90;;;;;;5132447;27;19965;-56
2023/01/25 13:02:45;;;;;;;;;;;0.30;99.90;;;;;;5133735;27;19975;-56
2023/01/25 13:05:29;;;;;;;;;;;0.30;99.90;;;;;;5127040;27;19955;-56
2023/01/25 13:08:01;;;;;;;;;;;0.30;99.90;;;;;;5119337;28;19920;-56
2023/01/25 13:10:34;;;;;;;;;;;0.30;99.90;;;;;;5117272;27;19956;-56
2023/01/25 13:13:04;;;;;;;;;;;0.30;99.90;;;;;;5127767;27;19934;-56
2023/01/25 13:15:37;;;;;;;;;;;0.40;99.90;;;;;;5116375;27;20300;-55
2023/01/25 13:18:21;;;;;;;;;;;0.40;99.90;;;;;;5121475;27;19984;-56
2023/01/25 13:20:47;;;;;;;;;;;0.40;99.90;;;;;;5113070;28;19912;-56
2023/01/25 13:23:28;;;;;;;;;;;0.40;99.90;;;;;;5112794;27;20047;-55
2023/01/25 13:26:13;;;;;;;;;;;0.30;99.90;;;;;;5116328;28;20278;-56
2023/01/25 13:28:40;;;;;;;;;;;0.30;99.90;;;;;;5119289;28;19931;-56
2023/01/25 13:31:06;;;;;;;;;;;0.30;99.90;;;;;;5113612;28;19911;-56
2023/01/25 13:33:34;;;;;;;;;;;0.30;99.90;;;;;;5111061;28;20247;-56
2023/01/25 13:36:31;;;;;;;;;;;0.30;99.90;;;;;;5112679;28;19915;-56
2023/01/25 13:38:57;;;;;;;;;;;0.30;99.90;;;;;;5114515;28;19912;-57
2023/01/25 13:41:22;;;;;;;;;;;0.20;99.90;;;;;;5112632;28;19918;-56
2023/01/25 13:43:53;;;;;;;;;;;0.20;99.90;;;;;;5112766;28;19994;-56
2023/01/25 13:46:22;;;;;;;;;;;0.20;99.90;;;;;;5111050;28;19907;-57
2023/01/25 13:49:00;;;;;;;;;;;0.20;99.90;;;;;;5116657;28;19920;-56
2023/01/25 13:51:26;;;;;;;;;;;0.20;99.90;;;;;;5131824;28;20429;-57
2023/01/25 13:53:56;;;;;;;;;;;0.10;99.90;;;;;;5130305;28;19923;-57
2023/01/25 13:56:32;;;;;;;;;;;0.10;99.90;;;;;;5132120;28;20339;-56
2023/01/25 13:58:58;;;;;;;;;;;0.10;99.90;;;;;;5126269;28;19918;-56
2023/01/25 14:01:24;;;;;;;;;;;0.10;99.90;;;;;;5112890;28;19911;-55
2023/01/25 14:03:53;;;;;;;;;;;0.10;99.90;;;;;;5117630;27;19918;-57
2023/01/25 14:06:27;;;;;;;;;;;0.00;99.90;;;;;;5133704;28;19912;-56
2023/01/25 14:08:54;;;;;;;;;;;0.00;99.90;;;;;;5119893;28;19930;-56
2023/01/25 14:11:21;;;;;;;;;;;0.00;99.90;;;;;;5130142;28;20335;-55
2023/01/25 14:13:56;;;;;;;;;;;0.00;99.90;;;;;;5112110;28;19916;-55
2023/01/25 14:16:21;;;;;;;;;;;0.10;99.90;;;;;;5122940;28;19918;-56
2023/01/25 14:18:48;;;;;;;;;;;0.10;99.90;;;;;;5119069;27;20279;-57
2023/01/25 14:21:18;;;;;;;;;;;0.10;99.90;;;;;;5128321;27;19912;-56
2023/01/25 14:23:44;;;;;;;;;;;0.00;99.90;;;;;;5134242;27;19912;-56
2023/01/25 14:26:15;;;;;;;;;;;0.00;99.90;;;;;;5136520;27;19912;-58
2023/01/25 14:28:43;;;;;;;;;;;0.00;99.90;;;;;;5130066;27;20037;-58
2023/01/25 14:31:15;;;;;;;;;;;0.00;99.90;;;;;;5124479;27;19912;-58
2023/01/25 14:33:46;;;;;;;;;;;0.00;99.90;;;;;;5136603;27;19915;-60
2023/01/25 14:36:15;;;;;;;;;;;0.00;99.90;;;;;;5119038;27;19951;-59
2023/01/25 14:38:41;;;;;;;;;;;0.00;99.90;;;;;;5116200;27;19912;-58
2023/01/25 14:41:15;;;;;;;;;;;0.00;99.90;;;;;;5115941;28;20344;-59